createdAt,value
2022-08-22T00:02:06.091Z,19.24
2022-08-22T00:02:45.270Z,23.05
2022-08-22T00:03:11.174Z,21.96
2022-08-22T00:03:11.472Z,21.90
2022-08-22T00:04:53.082Z,19.15
2022-08-22T00:08:02.321Z,19.12
2022-08-22T00:10:45.154Z,19.20
2022-08-22T00:13:45.412Z,19.10
2022-08-22T00:16:33.410Z,19.03
2022-08-22T00:19:02.763Z,18.63
2022-08-22T00:21:36.256Z,18.41
2022-08-22T00:24:13.505Z,18.60
2022-08-22T00:27:04.453Z,18.82
2022-08-22T00:29:45.704Z,18.68
2022-08-22T00:32:20.629Z,18.55
2022-08-22T00:35:07.744Z,18.45
2022-08-22T00:37:43.906Z,18.65
2022-08-22T00:40:36.343Z,18.58
2022-08-22T00:43:43.654Z,18.68
2022-08-22T00:46:19.257Z,18.64
2022-08-22T00:49:01.040Z,18.51
2022-08-22T00:52:01.612Z,18.57
2022-08-22T00:54:47.468Z,18.51
2022-08-22T00:57:30.633Z,18.47
2022-08-22T01:00:14.159Z,18.37
2022-08-22T01:02:50.497Z,18.20
2022-08-22T01:05:46.764Z,18.24
2022-08-22T01:08:35.205Z,18.16
2022-08-22T01:11:38.782Z,18.47
2022-08-22T01:14:49.254Z,18.09
2022-08-22T01:17:56.235Z,18.05
2022-08-22T01:20:28.624Z,18.12
2022-08-22T01:23:32.546Z,18.00
2022-08-22T01:26:19.061Z,17.99
2022-08-22T01:29:04.784Z,18.19
2022-08-22T01:32:24.618Z,18.14
2022-08-22T01:34:54.196Z,18.09
2022-08-22T01:37:33.043Z,17.98
2022-08-22T01:40:24.039Z,17.96
2022-08-22T01:43:51.330Z,17.71
2022-08-22T01:46:25.481Z,17.42
2022-08-22T01:49:14.840Z,17.26
2022-08-22T01:51:53.431Z,17.37
2022-08-22T01:54:45.265Z,17.38
2022-08-22T01:57:12.849Z,17.07
2022-08-22T01:59:48.702Z,16.92
2022-08-22T02:02:20.961Z,17.13
2022-08-22T02:05:05.719Z,17.52
2022-08-22T02:07:47.393Z,17.68
2022-08-22T02:10:25.050Z,17.38
2022-08-22T02:13:33.158Z,17.44
2022-08-22T02:16:12.253Z,17.37
2022-08-22T02:19:03.700Z,17.44
2022-08-22T02:21:49.381Z,17.30
2022-08-22T02:24:44.917Z,17.14
2022-08-22T02:27:31.558Z,17.02
2022-08-22T02:30:10.503Z,16.83
2022-08-22T02:32:40.149Z,16.80
2022-08-22T02:35:18.238Z,16.76
2022-08-22T02:38:16.060Z,16.71
2022-08-22T02:41:12.765Z,16.86
2022-08-22T02:43:46.670Z,17.20
2022-08-22T02:46:25.688Z,16.97
2022-08-22T02:49:21.132Z,16.93
2022-08-22T02:52:03.163Z,17.00
2022-08-22T02:54:48.574Z,16.94
2022-08-22T02:57:39.687Z,17.00
2022-08-22T03:00:31.369Z,17.02
2022-08-22T03:02:59.390Z,16.96
2022-08-22T03:05:37.821Z,17.10
2022-08-22T03:08:47.425Z,17.07
2022-08-22T03:11:32.048Z,17.06
2022-08-22T03:14:31.034Z,17.00
2022-08-22T03:17:31.679Z,17.00
2022-08-22T03:20:14.999Z,17.21
2022-08-22T03:22:57.514Z,17.00
2022-08-22T03:25:34.008Z,16.89
2022-08-22T03:28:10.157Z,16.62
2022-08-22T03:31:21.163Z,16.49
2022-08-22T03:34:27.225Z,16.71
2022-08-22T03:37:14.721Z,16.72
2022-08-22T03:39:41.162Z,16.58
2022-08-22T03:42:17.908Z,16.66
2022-08-22T03:45:03.084Z,16.53
2022-08-22T03:47:33.812Z,16.53
2022-08-22T03:50:19.285Z,16.52
2022-08-22T03:53:24.945Z,16.73
2022-08-22T03:56:13.411Z,16.71
2022-08-22T03:58:46.199Z,16.82
2022-08-22T04:01:57.952Z,16.56
2022-08-22T04:04:31.786Z,16.59
2022-08-22T04:07:28.440Z,16.59
2022-08-22T04:10:17.338Z,16.51
2022-08-22T04:13:16.385Z,16.53
2022-08-22T04:15:58.086Z,16.62
2022-08-22T04:19:12.624Z,16.42
2022-08-22T04:21:48.225Z,16.26
2022-08-22T04:24:33.973Z,16.36
2022-08-22T04:27:17.346Z,16.39
2022-08-22T04:29:52.492Z,16.26
2022-08-22T04:32:36.405Z,16.25
2022-08-22T04:35:45.988Z,16.62
2022-08-22T04:38:27.113Z,16.96
2022-08-22T04:41:17.061Z,16.76
2022-08-22T04:44:00.928Z,16.73
2022-08-22T04:46:41.722Z,16.92
2022-08-22T04:49:24.830Z,17.00
2022-08-22T04:52:09.342Z,16.87
2022-08-22T04:54:54.678Z,17.02
2022-08-22T04:57:48.301Z,16.92
2022-08-22T05:00:16.298Z,16.84
2022-08-22T05:02:50.194Z,16.76
2022-08-22T05:05:24.254Z,16.86
2022-08-22T05:07:58.139Z,16.94
2022-08-22T05:10:38.305Z,16.97
2022-08-22T05:13:13.033Z,17.10
2022-08-22T05:15:46.025Z,17.23
2022-08-22T05:18:24.258Z,17.41
2022-08-22T05:20:59.314Z,17.47
2022-08-22T05:23:34.569Z,17.78
2022-08-22T05:26:03.567Z,17.68
2022-08-22T05:28:36.007Z,17.65
2022-08-22T05:31:08.442Z,17.73
2022-08-22T05:33:50.905Z,17.72
2022-08-22T05:36:27.432Z,17.68
2022-08-22T05:39:02.604Z,17.66
2022-08-22T05:41:35.672Z,17.79
2022-08-22T05:44:03.466Z,17.96
2022-08-22T05:46:35.981Z,18.03
2022-08-22T05:49:05.742Z,18.10
2022-08-22T05:51:48.777Z,18.00
2022-08-22T05:54:20.216Z,18.17
2022-08-22T05:56:57.777Z,18.19
2022-08-22T05:59:26.495Z,18.34
2022-08-22T06:02:12.505Z,18.36
2022-08-22T06:04:55.824Z,18.33
2022-08-22T06:07:27.706Z,18.55
2022-08-22T06:10:29.716Z,18.71
2022-08-22T06:13:12.107Z,18.85
2022-08-22T06:15:51.886Z,18.85
2022-08-22T06:18:26.227Z,18.96
2022-08-22T06:20:56.879Z,19.09
2022-08-22T06:23:36.277Z,19.24
2022-08-22T06:26:05.435Z,19.29
2022-08-22T06:28:38.141Z,19.24
2022-08-22T06:33:45.744Z,19.54
2022-08-22T06:36:31.358Z,19.57
2022-08-22T06:39:03.939Z,19.68
2022-08-22T06:41:33.173Z,19.73
2022-08-22T06:44:01.537Z,19.84
2022-08-22T06:46:30.924Z,20.12
2022-08-22T06:49:00.372Z,20.26
2022-08-22T06:51:28.365Z,20.39
2022-08-22T06:54:00.967Z,20.65
2022-08-22T06:56:34.973Z,20.84
2022-08-22T06:59:07.814Z,21.03
2022-08-22T07:01:39.178Z,20.86
2022-08-22T07:04:08.930Z,20.80
2022-08-22T07:06:41.298Z,21.00
2022-08-22T07:09:18.926Z,20.70
2022-08-22T07:11:45.909Z,20.77
2022-08-22T07:14:16.900Z,20.70
2022-08-22T07:17:05.266Z,21.00
2022-08-22T07:19:38.389Z,21.13
2022-08-22T07:22:33.083Z,21.24
2022-08-22T07:25:20.295Z,21.18
2022-08-22T07:27:52.659Z,21.44
2022-08-22T07:30:27.679Z,21.92
2022-08-22T07:33:26.584Z,21.97
2022-08-22T07:35:59.090Z,22.04
2022-08-22T07:38:43.823Z,22.34
2022-08-22T07:41:22.519Z,22.77
2022-08-22T07:44:07.547Z,23.19
2022-08-22T07:47:00.664Z,23.18
2022-08-22T07:49:34.432Z,22.53
2022-08-22T07:52:07.495Z,23.19
2022-08-22T07:55:08.159Z,23.59
2022-08-22T07:57:41.344Z,23.98
2022-08-22T08:00:20.206Z,24.11
2022-08-22T08:02:51.103Z,24.42
2022-08-22T08:05:20.077Z,25.06
2022-08-22T08:07:47.957Z,25.12
2022-08-22T08:10:24.135Z,24.64
2022-08-22T08:13:02.592Z,24.53
2022-08-22T08:15:32.099Z,25.27
2022-08-22T08:18:03.867Z,25.64
2022-08-22T08:20:31.836Z,25.71
2022-08-22T08:22:59.426Z,25.12
2022-08-22T08:25:29.003Z,26.11
2022-08-22T08:28:16.486Z,26.77
2022-08-22T08:30:53.052Z,26.66
2022-08-22T08:33:26.316Z,26.84
2022-08-22T08:36:04.022Z,27.65
2022-08-22T08:38:46.836Z,27.55
2022-08-22T08:41:41.047Z,28.04
2022-08-22T08:45:09.072Z,27.70
2022-08-22T08:48:02.882Z,27.41
2022-08-22T08:50:36.515Z,27.25
2022-08-22T08:53:33.887Z,26.70
2022-08-22T08:56:37.548Z,26.60
2022-08-22T08:59:22.756Z,27.18
2022-08-22T09:02:20.492Z,27.99
2022-08-22T09:05:24.525Z,29.02
2022-08-22T09:07:54.262Z,28.91
2022-08-22T09:10:39.942Z,29.02
2022-08-22T09:13:21.950Z,28.14
2022-08-22T09:16:10.380Z,27.31
2022-08-22T09:19:14.837Z,28.57
2022-08-22T09:22:17.394Z,28.58
2022-08-22T09:24:51.833Z,28.61
2022-08-22T09:27:31.339Z,26.93
2022-08-22T09:30:19.589Z,27.78
2022-08-22T09:32:55.692Z,29.22
2022-08-22T09:35:22.523Z,28.71
2022-08-22T09:38:07.398Z,27.79
2022-08-22T09:40:45.020Z,28.81
2022-08-22T09:43:19.838Z,28.23
2022-08-22T09:45:48.789Z,28.77
2022-08-22T09:48:35.388Z,29.85
2022-08-22T09:51:31.700Z,30.84
2022-08-22T09:54:18.780Z,29.57
2022-08-22T09:57:03.777Z,30.69
2022-08-22T09:59:54.881Z,30.96
2022-08-22T10:02:24.748Z,29.42
2022-08-22T10:05:04.553Z,31.04
2022-08-22T10:07:46.837Z,29.90
2022-08-22T10:10:37.530Z,30.62
2022-08-22T10:13:10.440Z,30.11
2022-08-22T10:15:54.977Z,30.51
2022-08-22T10:18:36.119Z,29.94
2022-08-22T10:21:14.424Z,30.31
2022-08-22T10:23:48.988Z,30.38
2022-08-22T10:26:26.063Z,30.28
2022-08-22T10:29:34.803Z,30.08
2022-08-22T10:32:19.956Z,30.43
2022-08-22T10:34:58.106Z,31.37
2022-08-22T10:37:36.588Z,32.28
2022-08-22T10:40:25.587Z,32.29
2022-08-22T10:43:21.265Z,29.84
2022-08-22T10:46:07.032Z,30.38
2022-08-22T10:48:50.390Z,30.12
2022-08-22T10:51:46.753Z,30.27
2022-08-22T10:54:37.402Z,30.73
2022-08-22T10:57:22.713Z,31.61
2022-08-22T11:00:02.921Z,32.04
2022-08-22T11:02:53.064Z,32.59
2022-08-22T11:05:41.496Z,33.75
2022-08-22T11:08:34.739Z,33.07
2022-08-22T11:11:23.662Z,32.47
2022-08-22T11:14:16.445Z,31.58
2022-08-22T11:17:11.956Z,31.17
2022-08-22T11:20:12.378Z,30.69
2022-08-22T11:22:48.746Z,30.48
2022-08-22T11:25:29.299Z,30.27
2022-08-22T11:28:28.826Z,31.00
2022-08-22T11:31:37.290Z,31.26
2022-08-22T11:34:33.073Z,31.64
2022-08-22T11:37:19.829Z,31.29
2022-08-22T11:40:19.054Z,31.07
2022-08-22T11:42:49.831Z,31.24
2022-08-22T11:45:31.351Z,31.31
2022-08-22T11:48:16.641Z,31.95
2022-08-22T11:50:49.779Z,33.11
2022-08-22T11:53:36.132Z,32.26
2022-08-22T11:56:24.739Z,33.13
2022-08-22T11:59:20.412Z,32.88
2022-08-22T12:02:00.201Z,32.84
2022-08-22T12:04:32.558Z,31.71
2022-08-22T12:07:12.671Z,31.45
2022-08-22T12:09:56.157Z,31.92
2022-08-22T12:12:50.168Z,31.29
2022-08-22T12:15:24.642Z,32.28
2022-08-22T12:18:21.240Z,33.04
2022-08-22T12:21:14.047Z,32.64
2022-08-22T12:24:06.154Z,31.97
2022-08-22T12:26:56.018Z,32.20
2022-08-22T12:29:33.564Z,31.23
2022-08-22T12:32:37.969Z,32.10
2022-08-22T12:35:30.329Z,31.26
2022-08-22T12:38:28.486Z,31.51
2022-08-22T12:41:09.840Z,31.38
2022-08-22T12:43:56.844Z,31.99
2022-08-22T12:46:37.905Z,31.82
2022-08-22T12:49:29.276Z,31.21
2022-08-22T12:52:13.653Z,30.46
2022-08-22T12:54:55.655Z,30.51
2022-08-22T12:57:44.618Z,30.32
2022-08-22T13:00:32.032Z,30.65
2022-08-22T13:03:04.662Z,30.14
2022-08-22T13:05:40.376Z,29.95
2022-08-22T13:08:33.491Z,29.67
2022-08-22T13:11:12.398Z,29.49
2022-08-22T13:13:56.717Z,29.70
2022-08-22T13:16:26.237Z,29.88
2022-08-22T13:19:13.783Z,29.69
2022-08-22T13:21:48.253Z,29.81
2022-08-22T13:24:22.670Z,29.95
2022-08-22T13:27:11.650Z,29.74
2022-08-22T13:29:53.392Z,30.12
2022-08-22T13:32:30.908Z,29.30
2022-08-22T13:35:00.199Z,29.35
2022-08-22T13:37:50.139Z,29.70
2022-08-22T13:40:29.524Z,30.15
2022-08-22T13:43:22.470Z,30.00
2022-08-22T13:45:54.464Z,29.87
2022-08-22T13:48:28.577Z,29.81
2022-08-22T13:51:22.420Z,29.72
2022-08-22T13:54:03.058Z,29.80
2022-08-22T13:57:10.989Z,29.63
2022-08-22T14:00:05.255Z,30.02
2022-08-22T14:02:49.767Z,29.90
2022-08-22T14:05:40.158Z,30.00
2022-08-22T14:08:18.700Z,30.53
2022-08-22T14:11:20.635Z,30.89
2022-08-22T14:13:57.168Z,31.11
2022-08-22T14:16:33.002Z,31.72
2022-08-22T14:19:07.315Z,31.38
2022-08-22T14:21:40.816Z,30.79
2022-08-22T14:24:55.532Z,30.46
2022-08-22T14:27:35.027Z,30.80
2022-08-22T14:30:07.534Z,30.17
2022-08-22T14:32:49.453Z,30.45
2022-08-22T14:35:35.180Z,30.29
2022-08-22T14:38:30.093Z,30.02
2022-08-22T14:41:06.958Z,30.17
2022-08-22T14:44:03.886Z,30.25
2022-08-22T14:46:51.246Z,30.42
2022-08-22T14:49:35.404Z,30.32
2022-08-22T14:52:08.930Z,30.12
2022-08-22T14:54:36.699Z,30.32
2022-08-22T14:57:10.404Z,30.65
2022-08-22T14:59:45.567Z,30.62
2022-08-22T15:02:28.839Z,30.51
2022-08-22T15:04:58.121Z,30.68
2022-08-22T15:07:32.435Z,30.89
2022-08-22T15:10:06.167Z,30.56
2022-08-22T15:12:37.769Z,30.61
2022-08-22T15:15:27.411Z,30.68
2022-08-22T15:17:54.201Z,30.75
2022-08-22T15:20:49.163Z,30.70
2022-08-22T15:23:23.280Z,30.20
2022-08-22T15:26:03.615Z,30.14
2022-08-22T15:28:35.951Z,30.04
2022-08-22T15:31:19.714Z,30.28
2022-08-22T15:33:46.969Z,30.28
2022-08-22T15:36:26.122Z,31.16
2022-08-22T15:38:55.274Z,30.87
2022-08-22T15:41:31.347Z,30.80
2022-08-22T15:44:15.027Z,30.80
2022-08-22T15:47:11.601Z,30.68
2022-08-22T15:49:52.036Z,30.62
2022-08-22T15:52:27.168Z,30.17
2022-08-22T15:54:53.628Z,30.15
2022-08-22T15:57:34.957Z,29.87
2022-08-22T16:00:17.350Z,29.59
2022-08-22T16:03:23.434Z,29.62
2022-08-22T16:05:57.054Z,29.70
2022-08-22T16:08:44.807Z,29.56
2022-08-22T16:11:33.024Z,29.50
2022-08-22T16:14:37.650Z,29.37
2022-08-22T16:17:26.682Z,29.37
2022-08-22T16:20:20.122Z,29.29
2022-08-22T16:22:56.546Z,29.22
2022-08-22T16:25:45.020Z,28.94
2022-08-22T16:28:56.896Z,28.84
2022-08-22T16:31:36.097Z,28.79
2022-08-22T16:34:17.873Z,28.94
2022-08-22T16:37:04.953Z,28.86
2022-08-22T16:39:40.342Z,28.81
2022-08-22T16:42:12.668Z,28.78
2022-08-22T16:44:43.487Z,28.81
2022-08-22T16:47:17.839Z,28.84
2022-08-22T16:49:50.269Z,28.82
2022-08-22T16:52:29.001Z,28.95
2022-08-22T16:55:07.206Z,28.89
2022-08-22T16:57:59.441Z,28.74
2022-08-22T17:00:51.207Z,28.82
2022-08-22T17:03:39.412Z,28.81
2022-08-22T17:06:47.837Z,28.68
2022-08-22T17:09:40.190Z,28.69
2022-08-22T17:12:19.934Z,28.63
2022-08-22T17:15:07.101Z,28.56
2022-08-22T17:17:36.643Z,28.69
2022-08-22T17:20:06.151Z,28.79
2022-08-22T17:22:56.598Z,29.06
2022-08-22T17:25:29.175Z,29.14
2022-08-22T17:28:25.614Z,28.91
2022-08-22T17:31:03.057Z,28.78
2022-08-22T17:33:51.541Z,28.85
2022-08-22T17:36:39.411Z,28.92
2022-08-22T17:39:26.988Z,28.77
2022-08-22T17:42:05.676Z,28.57
2022-08-22T17:44:42.484Z,28.38
2022-08-22T17:47:16.942Z,28.14
2022-08-22T17:49:45.226Z,27.99
2022-08-22T17:52:33.909Z,27.86
2022-08-22T17:58:47.830Z,27.76
2022-08-22T18:01:37.460Z,27.66
2022-08-22T18:04:09.203Z,27.58
2022-08-22T18:06:47.763Z,27.57
2022-08-22T18:09:31.286Z,27.57
2022-08-22T18:12:07.821Z,27.53
2022-08-22T18:15:05.743Z,27.39
2022-08-22T18:17:43.263Z,27.34
2022-08-22T18:20:13.214Z,27.24
2022-08-22T18:22:39.690Z,27.04
2022-08-22T18:25:19.255Z,27.01
2022-08-22T18:28:12.788Z,26.84
2022-08-22T18:30:56.352Z,26.77
2022-08-22T18:33:32.884Z,26.74
2022-08-22T18:36:12.716Z,26.69
2022-08-22T18:38:50.123Z,26.62
2022-08-22T18:41:41.039Z,26.52
2022-08-22T18:44:18.111Z,26.47
2022-08-22T18:46:56.897Z,26.46
2022-08-22T18:49:37.671Z,26.44
2022-08-22T18:52:25.164Z,26.39
2022-08-22T18:55:19.147Z,26.33
2022-08-22T18:58:19.526Z,26.35
2022-08-22T19:00:53.973Z,26.29
2022-08-22T19:03:54.620Z,26.23
2022-08-22T19:06:24.257Z,26.12
2022-08-22T19:09:21.705Z,26.06
2022-08-22T19:12:10.110Z,25.95
2022-08-22T19:15:34.321Z,25.77
2022-08-22T19:18:34.373Z,25.75
2022-08-22T19:21:50.065Z,25.68
2022-08-22T19:24:19.278Z,25.65
2022-08-22T19:27:12.360Z,25.51
2022-08-22T19:29:38.861Z,25.40
2022-08-22T19:32:12.811Z,25.37
2022-08-22T19:34:46.781Z,25.34
2022-08-22T19:37:30.801Z,25.31
2022-08-22T19:40:11.727Z,25.24
2022-08-22T19:42:40.940Z,25.20
2022-08-22T19:45:17.655Z,25.15
2022-08-22T19:47:54.800Z,25.03
2022-08-22T19:50:21.351Z,24.90
2022-08-22T19:52:50.962Z,24.90
2022-08-22T19:55:30.903Z,24.85
2022-08-22T19:58:03.983Z,24.83
2022-08-22T20:00:57.676Z,24.86
2022-08-22T20:03:34.985Z,24.76
2022-08-22T20:06:43.965Z,24.69
2022-08-22T20:10:02.145Z,24.61
2022-08-22T20:12:28.629Z,24.59
2022-08-22T20:14:56.106Z,24.49
2022-08-22T20:17:25.259Z,24.45
2022-08-22T20:22:52.923Z,24.32
2022-08-22T20:25:42.178Z,24.27
2022-08-22T20:28:33.291Z,24.29
2022-08-22T20:31:04.470Z,24.28
2022-08-22T20:33:40.888Z,24.28
2022-08-22T20:36:27.549Z,24.16
2022-08-22T20:39:16.812Z,24.18
2022-08-22T20:41:49.261Z,24.18
2022-08-22T20:44:33.235Z,24.29
2022-08-22T20:47:11.159Z,24.20
2022-08-22T20:49:44.442Z,24.24
2022-08-22T20:52:33.886Z,24.02
2022-08-22T20:55:31.850Z,24.05
2022-08-22T20:58:06.048Z,24.08
2022-08-22T21:00:42.227Z,23.96
2022-08-22T21:03:22.375Z,24.04
2022-08-22T21:05:49.263Z,23.98
2022-08-22T21:08:21.860Z,23.96
2022-08-22T21:11:23.465Z,23.96
2022-08-22T21:13:51.710Z,23.74
2022-08-22T21:16:31.624Z,23.70
2022-08-22T21:18:59.240Z,23.66
2022-08-22T21:21:29.125Z,23.58
2022-08-22T21:24:01.011Z,23.54
2022-08-22T21:26:38.452Z,23.53
2022-08-22T21:29:14.010Z,23.46
2022-08-22T21:31:54.110Z,23.42
2022-08-22T21:34:28.921Z,23.54
2022-08-22T21:37:00.742Z,23.58
2022-08-22T21:39:36.692Z,23.56
2022-08-22T21:42:03.133Z,23.54
2022-08-22T21:44:43.559Z,23.43
2022-08-22T21:47:30.644Z,23.42
2022-08-22T21:50:12.871Z,23.35
2022-08-22T21:53:01.014Z,23.19
2022-08-22T21:55:34.886Z,23.25
2022-08-22T21:58:04.737Z,23.12
2022-08-22T22:00:51.500Z,23.18
2022-08-22T22:03:22.417Z,23.16
2022-08-22T22:05:51.075Z,23.12
2022-08-22T22:08:17.892Z,23.08
2022-08-22T22:10:47.078Z,22.98
2022-08-22T22:13:13.862Z,22.95
2022-08-22T22:15:44.397Z,22.95
2022-08-22T22:18:13.471Z,22.87
2022-08-22T22:20:41.232Z,22.82
2022-08-22T22:23:07.944Z,22.77
2022-08-22T22:25:40.075Z,22.74
2022-08-22T22:28:15.858Z,22.68
2022-08-22T22:30:43.339Z,22.70
2022-08-22T22:33:10.177Z,22.61
2022-08-22T22:35:39.242Z,22.57
2022-08-22T22:38:07.717Z,22.53
2022-08-22T22:40:35.225Z,22.33
2022-08-22T22:43:01.773Z,22.30
2022-08-22T22:45:28.466Z,22.22
2022-08-22T22:47:55.057Z,22.17
2022-08-22T22:50:21.765Z,22.22
2022-08-22T22:52:48.585Z,22.22
2022-08-22T22:55:23.992Z,22.14
2022-08-22T22:57:59.187Z,21.97
2022-08-22T23:00:31.189Z,21.90
2022-08-22T23:02:59.956Z,22.03
2022-08-22T23:05:26.649Z,22.03
2022-08-22T23:07:53.199Z,21.85
2022-08-22T23:10:22.095Z,21.72
2022-08-22T23:12:48.786Z,21.83
2022-08-22T23:15:15.556Z,21.83
2022-08-22T23:17:42.647Z,21.55
2022-08-22T23:20:09.540Z,21.72
2022-08-22T23:22:36.331Z,21.39
2022-08-22T23:25:03.056Z,21.39
2022-08-22T23:27:31.449Z,21.14
2022-08-22T23:29:57.992Z,21.01
2022-08-22T23:32:24.603Z,21.00
2022-08-22T23:34:51.169Z,21.00
2022-08-22T23:37:21.105Z,20.98
2022-08-22T23:39:48.706Z,20.79
2022-08-22T23:42:16.179Z,20.80
2022-08-22T23:44:45.242Z,20.79
2022-08-22T23:47:13.037Z,20.77
2022-08-22T23:49:40.626Z,20.79
2022-08-22T23:52:07.497Z,20.93
2022-08-22T23:54:34.323Z,20.80
